Time;durP1;ratioP1;P1;durP2;ratioP2;P2;SDS_P1;SDS_P2;PMS_P1;PMS_P2;Temp;Humidity;BMP_temperature;BMP_pressure;BME280_temperature;BME280_humidity;BME280_pressure;Samples;Min_cycle;Max_cycle;Signal;HPM_P1;HPM_P2
2022/05/02 04:32:16;;;;;;;25.65;10.13;;;;;;;6.69;65.55;99160.94;2011258;88;21100;-60
2022/05/02 04:35:12;;;;;;;29.65;12.43;;;;;;;6.85;66.12;99165.95;2011893;86;21075;-61
2022/05/02 04:38:13;;;;;;;31.27;12.63;;;;;;;7.22;65.97;99164.41;2062436;86;21136;-61
2022/05/02 04:41:14;;;;;;;26.40;10.08;;;;;;;7.55;66.04;99159.14;2040223;86;21059;-60
2022/05/02 04:44:15;;;;;;;27.32;10.03;;;;;;;7.92;65.06;99164.89;2036435;87;21131;-61
2022/05/02 04:47:16;;;;;;;26.20;9.95;;;;;;;8.08;65.41;99168.13;2036247;87;21478;-61
2022/05/02 04:50:18;;;;;;;27.62;10.30;;;;;;;8.26;64.79;99170.34;2037590;86;21059;-61
2022/05/02 04:53:19;;;;;;;25.97;9.60;;;;;;;8.66;64.86;99168.08;2063280;86;21051;-61
2022/05/02 04:56:19;;;;;;;25.20;9.93;;;;;;;9.13;63.95;99172.38;2036394;87;21012;-61
2022/05/02 04:59:20;;;;;;;25.40;10.03;;;;;;;9.42;63.24;99175.30;2036484;87;21023;-61
2022/05/02 05:02:21;;;;;;;25.43;9.45;;;;;;;9.68;62.63;99170.03;2036319;87;21035;-61
2022/05/02 05:05:21;;;;;;;26.77;9.53;;;;;;;9.99;62.82;99168.44;2035793;86;21091;-61
2022/05/02 05:08:22;;;;;;;24.65;9.65;;;;;;;10.46;61.94;99173.37;2030643;88;21134;-61
2022/05/02 05:11:23;;;;;;;25.15;9.95;;;;;;;10.71;61.48;99166.31;2030617;87;21604;-61
2022/05/02 05:17:26;;;;;;;26.05;10.15;;;;;;;11.32;60.88;99166.34;2041426;86;21551;-61
2022/05/02 05:20:27;;;;;;;24.85;9.45;;;;;;;11.48;60.91;99167.59;2040184;87;21064;-61
2022/05/02 05:23:28;;;;;;;25.15;9.70;;;;;;;11.81;60.43;99166.06;2030459;87;21015;-61
2022/05/02 05:26:29;;;;;;;25.75;10.60;;;;;;;12.02;59.34;99167.85;2030623;87;21594;-61
2022/05/02 05:29:30;;;;;;;24.45;9.60;;;;;;;12.42;59.80;99166.69;2030426;87;21071;-61
2022/05/02 05:32:30;;;;;;;24.32;9.78;;;;;;;12.82;58.69;99165.94;2031038;87;21102;-61
2022/05/02 05:35:31;;;;;;;23.52;9.85;;;;;;;13.14;58.25;99161.17;2030745;87;21012;-61
2022/05/02 05:38:31;;;;;;;22.27;8.30;;;;;;;13.36;58.47;99162.44;2030864;87;21031;-61
2022/05/02 05:41:32;;;;;;;24.00;8.60;;;;;;;13.68;58.24;99157.59;2030503;87;21040;-61
2022/05/02 05:44:33;;;;;;;24.72;8.55;;;;;;;13.91;57.25;99160.44;2031099;88;21059;-61
2022/05/02 05:47:33;;;;;;;23.00;8.70;;;;;;;14.19;56.79;99151.91;2030761;87;21007;-61
2022/05/02 05:50:34;;;;;;;25.17;9.28;;;;;;;14.41;56.49;99155.65;2030767;87;21031;-61
2022/05/02 05:53:35;;;;;;;22.60;8.78;;;;;;;14.82;56.15;99155.80;2031085;88;21547;-61
2022/05/02 05:56:37;;;;;;;22.52;8.73;;;;;;;15.03;54.83;99154.70;2030657;85;21087;-61
2022/05/02 05:59:37;;;;;;;22.48;7.83;;;;;;;15.23;55.71;99148.77;2030864;87;21043;-61
2022/05/02 06:02:39;;;;;;;23.02;8.63;;;;;;;15.61;54.28;99153.42;2030968;88;21483;-61
2022/05/02 06:05:40;;;;;;;20.95;7.30;;;;;;;15.83;54.25;99149.14;2033635;86;21045;-61
2022/05/02 06:08:41;;;;;;;22.67;7.92;;;;;;;16.04;53.35;99146.64;2050875;87;21046;-61
2022/05/02 06:11:41;;;;;;;23.80;7.87;;;;;;;16.12;53.00;99142.91;2050910;87;21065;-61
2022/05/02 06:20:47;;;;;;;22.07;7.33;;;;;;;16.79;52.12;99145.91;2031425;87;21584;-61
2022/05/02 06:23:48;;;;;;;22.27;6.62;;;;;;;17.08;51.02;99135.22;2050783;86;21017;-61
2022/05/02 06:26:48;;;;;;;20.57;6.47;;;;;;;17.44;51.11;99146.35;2051157;86;21108;-61
2022/05/02 06:29:49;;;;;;;23.80;6.30;;;;;;;17.92;49.09;99142.34;2051578;86;21052;-61
2022/05/02 06:32:49;;;;;;;18.92;5.50;;;;;;;18.49;49.37;99143.50;2051565;86;20997;-61
2022/05/02 06:35:50;;;;;;;14.80;4.72;;;;;;;18.87;48.06;99137.08;2050765;87;21511;-61
2022/05/02 06:38:51;;;;;;;16.67;5.00;;;;;;;19.02;46.78;99141.47;2051468;85;21471;-61
2022/05/02 06:41:52;;;;;;;18.77;4.92;;;;;;;19.24;46.44;99139.03;2051223;85;21460;-61
2022/05/02 06:44:52;;;;;;;16.00;4.62;;;;;;;19.45;45.37;99139.34;2051224;85;21041;-61
2022/05/02 06:47:53;;;;;;;17.73;4.85;;;;;;;19.80;45.22;99139.23;2051118;85;21056;-62
2022/05/02 06:50:54;;;;;;;17.27;4.62;;;;;;;20.10;42.58;99138.14;2051483;85;20989;-61
2022/05/02 06:53:54;;;;;;;13.48;4.40;;;;;;;20.33;41.88;99139.91;2051513;85;21055;-61
2022/05/02 06:56:55;;;;;;;16.25;4.45;;;;;;;20.70;42.95;99132.36;2051351;85;20993;-62
2022/05/02 06:59:55;;;;;;;18.20;4.80;;;;;;;21.07;40.59;99138.00;2051605;85;20997;-62
2022/05/02 07:02:58;;;;;;;17.00;4.60;;;;;;;21.45;40.00;99133.31;2025843;87;21008;-62
2022/05/02 07:05:58;;;;;;;15.78;4.40;;;;;;;21.71;38.99;99131.18;2043680;86;21041;-61
2022/05/02 07:08:59;;;;;;;16.45;4.90;;;;;;;21.85;38.62;99131.58;2051296;86;21492;-62
2022/05/02 07:12:00;;;;;;;17.50;4.40;;;;;;;22.07;39.33;99135.03;2051484;85;21512;-62
2022/05/02 07:15:00;;;;;;;23.00;6.97;;;;;;;22.09;38.49;99137.03;2051585;87;21064;-62
2022/05/02 07:18:01;;;;;;;14.57;4.10;;;;;;;21.91;37.64;99130.94;2051343;85;21492;-62
2022/05/02 07:21:02;;;;;;;17.77;4.37;;;;;;;21.68;37.28;99137.31;2051540;87;21056;-62
2022/05/02 07:24:03;;;;;;;14.28;4.12;;;;;;;21.46;37.38;99136.33;2051168;87;21100;-61
2022/05/02 07:27:04;;;;;;;15.72;4.00;;;;;;;21.24;37.14;99136.31;2051069;85;21073;-61
2022/05/02 07:30:05;;;;;;;20.00;4.03;;;;;;;21.15;36.81;99135.06;2048689;87;21154;-62
2022/05/02 07:33:06;;;;;;;17.52;3.95;;;;;;;21.10;37.38;99138.20;2064170;85;21035;-61
2022/05/02 07:36:07;;;;;;;11.80;3.85;;;;;;;21.18;36.93;99132.94;2044748;87;21017;-62
2022/05/02 07:39:08;;;;;;;13.55;3.83;;;;;;;21.54;37.52;99130.74;2064990;86;21033;-62
2022/05/02 07:42:09;;;;;;;14.47;4.00;;;;;;;21.90;35.60;99126.10;2058931;86;21511;-61
2022/05/02 07:45:10;;;;;;;15.15;4.03;;;;;;;22.14;35.73;99133.91;2061921;86;20998;-61
2022/05/02 07:48:11;;;;;;;;;;;;;;;22.26;34.27;99129.92;2047221;87;21110;-60
2022/05/02 07:51:12;;;;;;;13.40;4.08;;;;;;;22.12;33.96;99127.88;2049809;86;20141;-59
2022/05/02 07:54:12;;;;;;;14.05;4.10;;;;;;;22.19;32.89;99133.42;2050214;87;21033;-60
2022/05/02 07:57:13;;;;;;;14.07;3.95;;;;;;;22.43;34.29;99123.35;2049884;87;21014;-59
2022/05/02 08:00:14;;;;;;;13.33;3.80;;;;;;;22.70;34.07;99122.72;2042055;87;21473;-60
2022/05/02 08:03:15;;;;;;;13.45;3.90;;;;;;;22.96;34.77;99124.77;2043048;87;21077;-60
2022/05/02 08:06:16;;;;;;;12.03;3.90;;;;;;;23.14;33.06;99119.78;2044633;86;21063;-60
2022/05/02 08:09:16;;;;;;;16.80;4.13;;;;;;;23.17;31.22;99116.29;2023249;88;20991;-60
2022/05/02 08:12:17;;;;;;;13.10;4.40;;;;;;;23.07;32.22;99119.58;2023416;88;20990;-60
2022/05/02 08:15:17;;;;;;;15.07;4.00;;;;;;;23.07;32.52;99116.08;2023266;88;21525;-60
2022/05/02 08:18:17;;;;;;;12.80;3.97;;;;;;;23.16;31.45;99118.63;2023476;88;21057;-59
2022/05/02 08:21:18;;;;;;;12.87;3.67;;;;;;;23.28;31.85;99116.95;2023536;88;21011;-60
2022/05/02 08:27:21;;;;;;;17.32;4.12;;;;;;;23.80;31.69;99114.34;2028364;88;21478;-60
2022/05/02 08:30:22;;;;;;;12.10;4.03;;;;;;;23.82;31.36;99110.48;2023121;88;21054;-60
2022/05/02 08:33:22;;;;;;;17.60;4.27;;;;;;;23.92;31.37;99108.98;2023516;88;21014;-60
2022/05/02 08:36:23;;;;;;;13.27;4.10;;;;;;;23.92;28.93;99104.11;2023348;88;21019;-60
2022/05/02 08:39:23;;;;;;;13.53;4.20;;;;;;;23.81;29.80;99108.80;2023392;88;21470;-60
2022/05/02 08:42:23;;;;;;;15.47;4.30;;;;;;;23.79;28.04;99104.14;2023382;88;21526;-60
2022/05/02 08:45:24;;;;;;;15.57;4.60;;;;;;;23.26;27.87;99101.55;2023176;88;21078;-60
2022/05/02 08:48:24;;;;;;;12.70;3.80;;;;;;;23.13;29.94;99102.91;2023500;88;21026;-60
2022/05/02 08:51:25;;;;;;;17.07;4.40;;;;;;;23.47;30.41;99101.85;2023606;88;21006;-60
2022/05/02 08:54:26;;;;;;;17.03;4.47;;;;;;;23.73;29.87;99095.44;2022935;88;21019;-60
2022/05/02 08:57:26;;;;;;;14.67;4.63;;;;;;;23.73;28.75;99089.26;2023341;88;21503;-60
2022/05/02 09:00:27;;;;;;;17.83;4.30;;;;;;;23.65;28.63;99094.97;2023252;88;21508;-60
2022/05/02 09:03:27;;;;;;;13.43;4.10;;;;;;;23.76;30.39;99089.77;2023251;88;21034;-60
2022/05/02 09:06:27;;;;;;;12.20;4.03;;;;;;;23.92;29.11;99077.33;2023451;86;21043;-60
2022/05/02 09:09:28;;;;;;;13.17;3.97;;;;;;;23.92;27.76;99082.20;2023470;88;21059;-60
2022/05/02 09:12:28;;;;;;;13.63;3.87;;;;;;;23.68;26.94;99074.53;2023315;88;21058;-59
2022/05/02 09:15:29;;;;;;;11.17;3.80;;;;;;;23.66;28.58;99073.03;2023327;88;21007;-60
2022/05/02 09:18:29;;;;;;;17.87;4.67;;;;;;;23.97;28.30;99070.44;2023215;88;20995;-60
2022/05/02 09:21:30;;;;;;;15.00;4.10;;;;;;;24.18;27.60;99071.19;2023093;88;21530;-60
2022/05/02 09:24:30;;;;;;;13.63;4.10;;;;;;;24.37;26.95;99065.88;2023246;88;21535;-60
2022/05/02 09:27:31;;;;;;;11.47;4.10;;;;;;;24.35;25.72;99065.23;2023215;88;21010;-60
2022/05/02 09:30:33;;;;;;;14.17;4.07;;;;;;;24.37;25.29;99064.55;2023184;88;21027;-60
2022/05/02 09:33:33;;;;;;;;;;;;;;;24.31;27.26;99073.78;2025446;88;21067;-60
2022/05/02 09:36:33;;;;;;;11.90;3.60;;;;;;;24.49;26.60;99068.16;2023081;88;20108;-60
2022/05/02 09:39:34;;;;;;;13.50;3.83;;;;;;;24.50;26.50;99052.41;2023494;88;21099;-60
2022/05/02 09:42:35;;;;;;;11.38;3.72;;;;;;;24.20;24.95;99053.59;2023231;88;20995;-60
2022/05/02 09:51:40;;;;;;;13.15;4.17;;;;;;;24.38;27.16;99055.50;2028390;88;21051;-60
2022/05/02 09:57:43;;;;;;;13.45;4.30;;;;;;;25.03;26.45;99044.48;2028297;88;21031;-60
2022/05/02 10:03:46;;;;;;;11.83;3.98;;;;;;;25.48;26.44;99042.70;2028351;88;21534;-60
2022/05/02 10:06:46;;;;;;;12.97;3.93;;;;;;;25.61;25.24;99036.69;2023330;86;21074;-60
2022/05/02 10:09:47;;;;;;;12.10;4.10;;;;;;;25.96;26.03;99032.92;2023473;88;21031;-60
2022/05/02 10:12:47;;;;;;;14.10;4.10;;;;;;;26.28;25.24;99028.96;2022904;88;21071;-60
2022/05/02 10:15:48;;;;;;;16.03;4.60;;;;;;;26.09;23.16;99025.56;2023314;88;21521;-60
2022/05/02 10:18:48;;;;;;;13.27;4.10;;;;;;;26.09;25.83;99020.19;2023198;88;21019;-61
2022/05/02 10:21:49;;;;;;;13.30;4.10;;;;;;;25.85;24.78;99018.63;2023422;88;21051;-60
2022/05/02 10:24:50;;;;;;;11.85;3.75;;;;;;;25.92;24.69;99020.88;2023404;88;20979;-60
2022/05/02 10:27:51;;;;;;;12.03;3.97;;;;;;;26.21;24.76;99007.89;2023446;88;21039;-60
2022/05/02 10:30:53;;;;;;;13.05;3.92;;;;;;;26.54;24.31;99005.23;2006524;88;21059;-60
2022/05/02 10:33:53;;;;;;;15.63;4.10;;;;;;;26.84;24.67;99005.08;2023403;88;21537;-60
2022/05/02 10:36:54;;;;;;;15.80;4.10;;;;;;;27.32;25.00;98998.49;2023361;88;21517;-60
2022/05/02 10:39:55;;;;;;;10.83;3.67;;;;;;;27.61;24.70;99000.64;2023812;88;21023;-60
2022/05/02 10:42:55;;;;;;;10.55;3.58;;;;;;;27.99;24.17;98999.70;2023380;88;21031;-60
2022/05/02 10:45:56;;;;;;;13.13;4.37;;;;;;;27.92;22.08;98992.59;2023722;88;21071;-60
2022/05/02 10:48:56;;;;;;;10.90;3.97;;;;;;;27.61;22.80;98990.72;2023337;88;21067;-60
2022/05/02 10:51:57;;;;;;;12.33;3.60;;;;;;;26.58;21.99;98993.06;2023487;88;20995;-60
2022/05/02 10:54:59;;;;;;;15.03;4.17;;;;;;;25.70;21.96;98991.77;2023346;88;21493;-60
2022/05/02 10:57:59;;;;;;;11.35;3.83;;;;;;;25.47;22.30;98991.36;2028154;88;21003;-60
2022/05/02 11:01:00;;;;;;;12.53;3.83;;;;;;;25.31;22.48;98982.14;2023086;88;21515;-61
2022/05/02 11:04:00;;;;;;;11.07;3.40;;;;;;;25.03;23.90;98982.78;2023130;88;21584;-61
2022/05/02 11:07:01;;;;;;;11.73;3.90;;;;;;;24.84;23.84;98985.45;2023245;86;21078;-61
2022/05/02 11:10:01;;;;;;;14.33;3.70;;;;;;;24.58;24.07;98980.46;2023371;88;21007;-60
2022/05/02 11:13:02;;;;;;;15.17;3.97;;;;;;;24.44;24.56;98981.58;2023580;88;21047;-60
2022/05/02 11:16:03;;;;;;;14.07;4.00;;;;;;;24.30;23.67;98983.70;2023239;88;21082;-60
2022/05/02 11:22:07;;;;;;;9.80;3.67;;;;;;;23.78;25.59;98979.80;2028151;88;21027;-60
2022/05/02 11:25:08;;;;;;;14.40;4.30;;;;;;;23.64;24.58;98984.03;2023243;88;21010;-61
2022/05/02 11:28:09;;;;;;;15.13;4.10;;;;;;;23.49;24.67;98974.57;2023143;88;21537;-60
2022/05/02 11:31:09;;;;;;;14.03;3.80;;;;;;;23.48;25.24;98972.37;2023164;88;21085;-61
2022/05/02 11:34:09;;;;;;;11.87;3.53;;;;;;;23.49;25.03;98971.37;2023279;88;21007;-61
2022/05/02 11:37:10;;;;;;;13.50;3.70;;;;;;;23.84;26.55;98968.38;2023605;88;21011;-60
2022/05/02 11:40:10;;;;;;;12.03;3.60;;;;;;;24.59;26.62;98964.19;2023445;88;20995;-61
2022/05/02 11:43:12;;;;;;;15.87;4.20;;;;;;;24.60;24.23;98960.53;2023561;88;21015;-61
2022/05/02 11:46:12;;;;;;;13.35;3.72;;;;;;;24.27;22.95;98970.66;2023287;88;21065;-60
2022/05/02 11:49:13;;;;;;;11.83;3.67;;;;;;;23.76;25.52;98965.73;2023326;88;21042;-61
2022/05/02 11:52:15;;;;;;;12.93;3.90;;;;;;;23.32;25.22;98965.25;2023319;88;21018;-60
2022/05/02 11:55:15;;;;;;;14.58;3.67;;;;;;;22.96;24.50;98962.97;2023147;88;21098;-60
2022/05/02 11:58:17;;;;;;;14.45;4.00;;;;;;;22.72;25.17;98962.50;2023118;88;21628;-61
2022/05/02 12:01:18;;;;;;;15.83;3.97;;;;;;;22.60;25.66;98953.98;2023563;88;21047;-61
2022/05/02 12:04:20;;;;;;;15.70;4.22;;;;;;;22.58;24.15;98951.14;2023421;88;21542;-61
2022/05/02 12:07:21;;;;;;;11.60;3.90;;;;;;;22.48;23.98;98957.51;2022978;87;21038;-60
2022/05/02 12:10:21;;;;;;;11.60;3.87;;;;;;;22.49;24.34;98947.64;2023428;88;21042;-60
2022/05/02 12:13:22;;;;;;;11.33;3.80;;;;;;;22.55;24.75;98944.80;2023446;88;21532;-60
2022/05/02 12:16:22;;;;;;;13.73;3.70;;;;;;;22.69;24.87;98946.80;2023624;88;21046;-61
2022/05/02 12:19:23;;;;;;;16.97;4.27;;;;;;;22.97;25.17;98945.92;2023273;88;21062;-60
2022/05/02 12:22:24;;;;;;;11.57;3.50;;;;;;;23.59;25.03;98939.53;2023529;88;21051;-60
2022/05/02 12:25:25;;;;;;;14.60;3.60;;;;;;;23.80;25.31;98931.72;2023342;88;21053;-61
2022/05/02 12:28:25;;;;;;;12.90;3.90;;;;;;;24.06;24.37;98928.43;2023098;88;21593;-60
2022/05/02 12:31:26;;;;;;;12.00;3.67;;;;;;;23.92;23.19;98932.70;2023314;88;21003;-60
2022/05/02 12:34:26;;;;;;;13.55;3.92;;;;;;;23.79;23.49;98920.70;2023179;88;21585;-60
2022/05/02 12:37:27;;;;;;;9.10;3.47;;;;;;;23.82;23.72;98917.67;2023441;88;21003;-61
2022/05/02 12:40:27;;;;;;;15.80;4.03;;;;;;;23.91;23.02;98919.82;2023520;88;21039;-61
2022/05/02 12:43:29;;;;;;;12.27;3.67;;;;;;;23.67;23.75;98915.41;2023404;88;20991;-60
2022/05/02 12:46:32;;;;;;;12.18;3.67;;;;;;;23.59;22.96;98912.28;2023347;88;21010;-61
2022/05/02 12:49:32;;;;;;;16.90;4.22;;;;;;;23.59;23.89;98912.28;2028096;88;21019;-60
2022/05/02 12:52:32;;;;;;;14.03;3.80;;;;;;;23.96;25.16;98908.56;2023387;88;21624;-60
2022/05/02 12:55:33;;;;;;;11.13;3.70;;;;;;;24.05;24.26;98904.84;2023475;88;21058;-60
2022/05/02 13:01:36;;;;;;;15.48;3.60;;;;;;;23.45;23.67;98900.47;2028165;88;21493;-60
2022/05/02 13:04:36;;;;;;;11.27;3.43;;;;;;;23.31;24.16;98900.69;2023438;88;21026;-60
2022/05/02 13:07:36;;;;;;;10.40;3.47;;;;;;;23.45;25.22;98897.79;2025178;86;21046;-60
2022/05/02 13:10:39;;;;;;;11.65;3.87;;;;;;;23.72;24.13;98892.12;2039777;87;21050;-61
2022/05/02 13:13:40;;;;;;;12.82;3.70;;;;;;;23.70;22.00;98890.95;2040038;87;21031;-60
2022/05/02 13:16:40;;;;;;;15.07;3.90;;;;;;;23.46;24.01;98890.09;2040207;87;21473;-61
2022/05/02 13:19:42;;;;;;;18.67;5.20;;;;;;;23.18;24.92;98889.20;2039865;87;21045;-61
2022/05/02 13:22:42;;;;;;;;;;;;;;;22.61;23.16;98876.82;2042388;87;21099;-61
2022/05/02 13:25:43;;;;;;;13.55;3.67;;;;;;;22.72;24.33;98880.95;2039930;87;20168;-60
2022/05/02 13:28:43;;;;;;;9.53;3.57;;;;;;;22.88;23.62;98874.73;2039993;87;21553;-60
2022/05/02 13:31:45;;;;;;;12.03;3.83;;;;;;;23.08;23.62;98877.84;2040110;87;21560;-60
2022/05/02 13:34:48;;;;;;;20.23;6.35;;;;;;;22.78;23.62;98877.59;2039861;86;21070;-60
2022/05/02 13:37:48;;;;;;;12.55;3.60;;;;;;;22.66;24.44;98874.45;2043367;86;21014;-60
2022/05/02 13:40:49;;;;;;;13.27;3.97;;;;;;;22.62;25.79;98877.64;2040108;87;21055;-60
2022/05/02 13:43:49;;;;;;;40.80;11.33;;;;;;;22.43;23.96;98871.66;2040189;87;21046;-60
2022/05/02 13:46:50;;;;;;;17.47;4.97;;;;;;;22.62;24.74;98866.95;2040013;87;21621;-60
2022/05/02 13:49:51;;;;;;;12.20;3.80;;;;;;;22.80;25.16;98868.91;2039923;87;21087;-60
2022/05/02 13:52:51;;;;;;;8.73;3.43;;;;;;;22.84;24.46;98862.70;2040121;87;21034;-59
2022/05/02 13:55:52;;;;;;;13.83;4.00;;;;;;;22.79;25.48;98861.06;2040189;87;21093;-60
2022/05/02 13:58:52;;;;;;;14.07;3.70;;;;;;;22.73;24.98;98865.26;2040170;87;21060;-60
2022/05/02 14:01:52;;;;;;;12.50;3.53;;;;;;;22.84;23.94;98859.55;2040080;87;21097;-60
2022/05/02 14:04:56;;;;;;;13.53;3.90;;;;;;;22.82;24.08;98864.22;2039979;87;21077;-60
2022/05/02 14:07:56;;;;;;;31.73;7.97;;;;;;;22.59;23.08;98852.08;2040495;86;21059;-60
2022/05/02 14:10:58;;;;;;;17.73;4.83;;;;;;;22.65;24.64;98854.06;2029312;88;21502;-60
2022/05/02 14:13:58;;;;;;;15.75;4.45;;;;;;;22.92;25.13;98858.67;2028868;88;21114;-60
2022/05/02 14:16:59;;;;;;;12.27;3.77;;;;;;;23.24;25.38;98853.41;2027911;88;21067;-61
2022/05/02 14:19:59;;;;;;;16.97;3.77;;;;;;;23.51;25.40;98848.91;2018470;88;21463;-60
2022/05/02 14:23:01;;;;;;;14.57;4.20;;;;;;;23.48;24.88;98849.25;2033284;86;21004;-60
2022/05/02 14:26:02;;;;;;;13.95;4.05;;;;;;;23.45;25.44;98846.11;2032953;87;21043;-61
2022/05/02 14:29:03;;;;;;;16.00;3.67;;;;;;;23.49;24.21;98844.76;2003911;88;21100;-60
2022/05/02 14:32:04;;;;;;;14.43;4.07;;;;;;;23.33;24.98;98845.17;2000728;89;21604;-61
2022/05/02 14:35:05;;;;;;;10.28;3.87;;;;;;;23.43;24.69;98846.78;2000799;89;21044;-60
2022/05/02 14:38:06;;;;;;;14.93;4.20;;;;;;;23.32;25.10;98843.50;2000875;89;21021;-60
2022/05/02 14:41:07;;;;;;;11.63;3.52;;;;;;;23.03;24.78;98840.10;2000699;89;21045;-61
2022/05/02 14:44:08;;;;;;;15.60;4.23;;;;;;;22.58;25.43;98840.23;2000644;89;21061;-60
2022/05/02 14:47:09;;;;;;;15.65;4.28;;;;;;;22.31;24.85;98833.73;2000733;89;21029;-62
2022/05/02 14:50:09;;;;;;;12.33;4.10;;;;;;;22.05;23.73;98838.41;2000890;87;21061;-60
2022/05/02 14:53:10;;;;;;;13.53;4.23;;;;;;;21.67;27.34;98832.22;2000665;89;21048;-61
2022/05/02 14:56:12;;;;;;;13.13;3.90;;;;;;;21.63;25.96;98834.87;2000718;89;21145;-61
2022/05/02 14:59:13;;;;;;;14.20;3.87;;;;;;;21.70;25.64;98835.89;2000666;89;21096;-60
2022/05/02 15:02:14;;;;;;;12.80;3.70;;;;;;;21.90;25.14;98827.58;2000764;89;21043;-61
2022/05/02 15:05:16;;;;;;;13.43;4.10;;;;;;;22.13;25.07;98827.73;2000766;89;21065;-60
2022/05/02 15:08:16;;;;;;;14.68;4.17;;;;;;;22.30;24.77;98822.70;2000621;87;21079;-60
2022/05/02 15:11:17;;;;;;;13.73;4.10;;;;;;;22.29;24.17;98818.88;2001110;89;21068;-60
2022/05/02 15:14:17;;;;;;;10.70;3.58;;;;;;;22.18;24.60;98820.55;2000193;87;21073;-60
2022/05/02 15:17:18;;;;;;;28.02;11.83;;;;;;;22.33;24.61;98818.91;2000992;89;21044;-60
2022/05/02 15:20:19;;;;;;;24.23;9.33;;;;;;;22.69;23.79;98818.48;2001151;89;21492;-60
2022/05/02 15:23:20;;;;;;;13.58;3.60;;;;;;;22.86;25.18;98817.08;2001275;89;21068;-60
2022/05/02 15:26:20;;;;;;;9.17;3.43;;;;;;;22.82;24.31;98813.93;2001090;89;21088;-60
2022/05/02 15:38:28;;;;;;;12.00;4.15;;;;;;;22.43;24.18;98806.70;1982073;89;21070;-60
2022/05/02 15:41:28;;;;;;;14.17;3.87;;;;;;;22.51;23.95;98802.65;2001125;89;21033;-60
2022/05/02 15:44:29;;;;;;;12.93;3.83;;;;;;;22.51;24.63;98798.64;2000965;89;21069;-60
2022/05/02 15:47:30;;;;;;;14.13;4.20;;;;;;;22.39;24.03;98806.70;2001206;89;21025;-60
2022/05/02 15:50:30;;;;;;;12.47;3.53;;;;;;;22.27;23.46;98800.86;2001089;89;21037;-60
2022/05/02 15:53:31;;;;;;;10.58;3.87;;;;;;;22.64;23.23;98798.10;2001115;89;21042;-60
2022/05/02 15:56:31;;;;;;;16.07;3.83;;;;;;;22.88;23.83;98785.67;2000692;89;21532;-60
2022/05/02 15:59:31;;;;;;;12.67;3.77;;;;;;;23.10;24.46;98785.38;2001122;89;21480;-60
2022/05/02 16:02:32;;;;;;;13.33;4.30;;;;;;;23.21;23.93;98785.02;2001039;89;21093;-60
2022/05/02 16:05:33;;;;;;;13.10;3.70;;;;;;;23.26;25.74;98789.36;2001195;89;21045;-60
2022/05/02 16:11:36;;;;;;;12.88;4.25;;;;;;;23.33;25.89;98785.45;1982442;89;20997;-60
2022/05/02 16:14:36;;;;;;;14.87;4.50;;;;;;;23.64;24.89;98780.05;2001048;89;21025;-60
2022/05/02 16:17:37;;;;;;;10.53;3.40;;;;;;;23.61;25.92;98778.25;2001287;89;20985;-60
2022/05/02 16:20:38;;;;;;;13.77;3.60;;;;;;;23.19;24.04;98773.68;2000954;89;21025;-60
2022/05/02 16:23:39;;;;;;;10.90;3.77;;;;;;;22.95;24.69;98776.77;2001094;89;21528;-60
2022/05/02 16:26:41;;;;;;;13.27;3.53;;;;;;;22.70;26.50;98780.55;2001043;89;21021;-60
2022/05/02 16:29:41;;;;;;;11.05;3.70;;;;;;;22.38;26.58;98779.13;2000962;88;21033;-60
2022/05/02 16:32:41;;;;;;;12.07;3.70;;;;;;;22.10;26.17;98780.83;2000927;89;21532;-60
2022/05/02 16:35:42;;;;;;;12.33;3.90;;;;;;;21.83;26.22;98781.19;2000907;89;21865;-60
2022/05/02 16:38:43;;;;;;;14.23;3.83;;;;;;;21.61;26.07;98780.85;2000966;89;21017;-60
2022/05/02 16:41:45;;;;;;;15.60;4.10;;;;;;;21.34;26.58;98777.44;2001170;89;21045;-60
2022/05/02 16:44:46;;;;;;;12.28;4.03;;;;;;;21.13;26.55;98778.39;1981606;89;21080;-60
2022/05/02 16:47:46;;;;;;;14.38;4.30;;;;;;;21.04;26.94;98783.69;2001044;89;21596;-60
2022/05/02 16:50:46;;;;;;;9.63;3.83;;;;;;;21.00;27.00;98781.52;2000788;89;21002;-61
2022/05/02 16:53:48;;;;;;;13.28;4.00;;;;;;;20.91;27.61;98785.48;2001079;89;21021;-60
2022/05/02 16:56:49;;;;;;;15.30;4.33;;;;;;;20.80;28.00;98779.61;2001062;89;21049;-60
2022/05/02 16:59:49;;;;;;;15.38;4.17;;;;;;;20.69;28.13;98779.41;2001105;89;21068;-60
2022/05/02 17:02:50;;;;;;;14.03;4.30;;;;;;;20.64;28.10;98776.34;2001088;89;21058;-60
2022/05/02 17:05:51;;;;;;;14.30;4.40;;;;;;;21.25;28.00;98779.25;2001022;89;21057;-60
2022/05/02 17:08:51;;;;;;;15.68;4.50;;;;;;;23.20;26.68;98782.02;2001807;88;21069;-60
2022/05/02 17:11:52;;;;;;;12.90;3.80;;;;;;;24.54;25.78;98773.58;2000108;89;21029;-61
2022/05/02 17:14:53;;;;;;;12.13;4.10;;;;;;;25.47;25.50;98771.20;2005705;89;21136;-61
2022/05/02 17:17:54;;;;;;;16.73;6.00;;;;;;;26.11;24.49;98768.19;1999947;89;21039;-61
2022/05/02 17:20:54;;;;;;;15.40;5.30;;;;;;;26.48;24.07;98766.16;1998614;89;21061;-60
2022/05/02 17:23:55;;;;;;;23.80;8.40;;;;;;;26.71;24.35;98770.46;2000888;89;21591;-61
2022/05/02 17:26:55;;;;;;;28.80;11.03;;;;;;;26.74;25.10;98770.06;2003549;89;21108;-61
2022/05/02 17:29:57;;;;;;;48.52;30.92;;;;;;;26.60;24.93;98772.63;1997143;89;21089;-61
2022/05/02 17:33:00;;;;;;;38.73;20.52;;;;;;;26.34;24.82;98773.83;1997287;89;21137;-61
2022/05/02 17:36:01;;;;;;;44.03;28.05;;;;;;;25.98;25.27;98777.47;1996846;88;21137;-61
2022/05/02 17:39:01;;;;;;;51.60;36.37;;;;;;;25.54;25.87;98773.48;2005882;89;21062;-61
2022/05/02 17:42:02;;;;;;;45.07;26.80;;;;;;;25.06;26.38;98778.49;1998673;89;21025;-60
2022/05/02 17:45:03;;;;;;;33.95;15.63;;;;;;;24.46;26.65;98777.16;1996889;88;21102;-61
2022/05/02 17:48:03;;;;;;;35.83;16.77;;;;;;;23.79;27.42;98788.16;2000964;89;21069;-60
2022/05/02 17:51:04;;;;;;;35.37;16.10;;;;;;;23.06;28.19;98787.59;2000894;89;21034;-60
2022/05/02 17:54:07;;;;;;;32.07;15.90;;;;;;;22.39;28.60;98784.81;2005802;89;21560;-60
2022/05/02 17:57:07;;;;;;;30.00;13.98;;;;;;;21.72;28.97;98788.53;1982781;89;21029;-60
2022/05/02 18:00:11;;;;;;;33.53;15.43;;;;;;;21.03;29.38;98796.70;2005791;89;21561;-60
2022/05/02 18:03:10;;;;;;;35.55;14.03;;;;;;;20.41;30.19;98792.87;1982770;89;21053;-60
2022/05/02 18:06:10;;;;;;;35.50;16.33;;;;;;;19.82;30.85;98797.95;2005790;89;21057;-60
2022/05/02 18:09:12;;;;;;;33.10;14.83;;;;;;;19.33;31.41;98800.44;2001459;89;21086;-61
2022/05/02 18:12:13;;;;;;;26.85;10.23;;;;;;;18.92;32.11;98797.34;1996919;89;21076;-60
2022/05/02 18:15:14;;;;;;;34.92;14.68;;;;;;;18.40;32.75;98800.43;1997386;89;21060;-60
2022/05/02 18:18:14;;;;;;;38.90;18.30;;;;;;;17.93;33.30;98797.73;1996590;88;21485;-60
2022/05/02 18:21:15;;;;;;;44.33;21.62;;;;;;;17.53;33.89;98802.19;2005469;89;21041;-60
2022/05/02 18:24:15;;;;;;;54.63;26.87;;;;;;;17.21;34.35;98805.06;2001229;87;21077;-60
2022/05/02 18:27:18;;;;;;;54.42;28.95;;;;;;;16.83;34.63;98806.11;1998499;89;21005;-60
2022/05/02 18:30:19;;;;;;;58.45;31.40;;;;;;;16.54;34.98;98805.51;1987304;89;21523;-60
2022/05/02 18:33:20;;;;;;;59.55;30.45;;;;;;;16.24;35.49;98812.45;1998530;89;21013;-60
2022/05/02 18:36:20;;;;;;;55.48;28.20;;;;;;;15.95;35.57;98820.20;2001965;88;21144;-60
2022/05/02 18:39:23;;;;;;;58.13;29.85;;;;;;;15.67;36.21;98824.25;1978085;89;21057;-60
2022/05/02 18:42:23;;;;;;;58.17;28.60;;;;;;;15.38;36.38;98826.14;2000844;89;21524;-60
2022/05/02 18:54:32;;;;;;;55.40;26.93;;;;;;;14.49;38.13;98827.37;1977354;89;21026;-60
2022/05/02 18:57:32;;;;;;;52.83;26.55;;;;;;;14.40;38.37;98834.70;1998777;89;21069;-60
2022/05/02 19:00:32;;;;;;;59.10;29.12;;;;;;;14.27;39.32;98835.63;1998806;88;21021;-60
2022/05/02 19:03:33;;;;;;;93.82;48.85;;;;;;;14.12;40.12;98831.50;1998801;89;21137;-60
2022/05/02 19:06:34;;;;;;;88.00;47.80;;;;;;;13.91;40.65;98827.39;1998537;89;21046;-60
2022/05/02 19:09:34;;;;;;;87.82;48.70;;;;;;;13.77;40.71;98838.46;1998598;88;21117;-60
2022/05/02 19:12:36;;;;;;;68.33;33.80;;;;;;;13.65;40.73;98835.43;1998554;89;21596;-62
2022/05/02 19:15:36;;;;;;;100.78;53.58;;;;;;;13.43;41.00;98837.45;1998792;89;21136;-62
2022/05/02 19:18:37;;;;;;;57.45;27.58;;;;;;;13.32;41.40;98834.27;1998902;89;21010;-62
2022/05/02 19:21:37;;;;;;;90.15;45.28;;;;;;;13.18;42.63;98833.93;1998559;89;21123;-62